This is the latest recevied weather packets stored in our database for station/object WY7ATH-2. If no packets are shown the sender has not sent any weather packets the latest 10 day(s).
| Time | Temp. | Humidity | Pressure | Rain* | Wind** | Luminosity | Snow |
|---|---|---|---|---|---|---|---|
| 1777446879 | -1.11° C | - | - | 0 mm | 0 m/s | - | - |
| 1777446282 | -2.22° C | - | - | 0 mm | 0 m/s | - | - |
| 1777445686 | -1.11° C | - | - | 0 mm | 0 m/s | - | - |
| 1777444488 | -0.56° C | - | - | 0 mm | 0 m/s | - | - |
| 1777443891 | -0.56° C | - | - | 0 mm | 0 m/s | - | - |
| 1777443294 | -0.56° C | - | - | 0 mm | 0 m/s | - | - |
| 1777442101 | -0.56° C | - | - | 0 mm | 0 m/s | - | - |
| 1777441504 | -0.56° C | - | - | 0 mm | 0 m/s | - | - |
| 1777440306 | -1.11° C | - | - | 0 mm | 0 m/s | - | - |
| 1777439710 | -0.56° C | - | - | 0 mm | 0 m/s | - | - |
| 1777439113 | 0° C | - | - | 0 mm | 0 m/s | - | - |
| 1777438516 | -0.56° C | - | - | 0 mm | 0 m/s | - | - |
| 1777437318 | 0° C | - | - | 0 mm | 0 m/s | - | - |
| 1777435527 | 0.56° C | - | - | 0 mm | 0 m/s | - | - |
| 1777431942 | 0.56° C | - | - | 0 mm | 0 m/s | - | - |
| 1777408637 | 7.22° C | - | - | 17.78 mm | 0 m/s | - | - |
| 1777405049 | 7.78° C | - | - | 20.32 mm | 0 m/s | - | - |
| 1777400867 | 6.11° C | - | - | 19.81 mm | 0 m/s | - | - |
| 1777390709 | 2.22° C | - | - | 2.29 mm | 0 m/s | - | - |
| 1777378759 | -3.89° C | - | - | 0 mm | 0 m/s | - | - |
| 1777373384 | -2.78° C | - | - | 0 mm | 0 m/s | - | - |
| 1777369198 | -1.67° C | - | - | 0 mm | 0 m/s | - | - |
| 1777363823 | -1.67° C | - | - | 0 mm | 0 m/s | - | - |
| 1777357250 | -1.11° C | - | - | 0 mm | 0 m/s | - | - |
| 1777354262 | -1.11° C | - | - | 0 mm | 0 m/s | - | - |
* Rain latest hour (hover to see other rain measurements)
** Current wind speed in m/s (hover to see current wind gust speed)